Time;durP1;ratioP1;P1;durP2;ratioP2;P2;SDS_P1;SDS_P2;PMS_P1;PMS_P2;Temp;Humidity;BMP_temperature;BMP_pressure;BME280_temperature;BME280_humidity;BME280_pressure;Samples;Min_cycle;Max_cycle;Signal;HPM_P1;HPM_P2
2022/06/13 00:01:40;;;;;;;2.03;1.60;;;18.60;98.00;;;;;;5054752;28;20465;-70
2022/06/13 00:04:08;;;;;;;1.50;1.30;;;18.60;98.00;;;;;;5053612;28;20449;-70
2022/06/13 00:06:36;;;;;;;2.83;1.87;;;18.70;98.00;;;;;;5054933;28;20968;-70
2022/06/13 00:09:04;;;;;;;3.47;2.30;;;18.70;98.00;;;;;;5054960;28;20481;-70
2022/06/13 00:11:32;;;;;;;2.23;1.77;;;18.60;98.00;;;;;;5054654;28;20476;-70
2022/06/13 00:13:59;;;;;;;6.10;1.50;;;18.50;98.00;;;;;;5055085;28;20457;-70
2022/06/13 00:16:28;;;;;;;2.07;1.60;;;18.40;98.00;;;;;;5055153;28;20449;-70
2022/06/13 00:18:56;;;;;;;2.00;1.60;;;18.50;98.00;;;;;;5054852;28;20458;-70
2022/06/13 00:21:25;;;;;;;2.97;1.83;;;18.50;98.00;;;;;;5054953;28;20453;-71
2022/06/13 00:23:54;;;;;;;1.50;1.47;;;18.60;98.00;;;;;;5054841;28;20454;-70
2022/06/13 00:26:23;;;;;;;2.30;2.07;;;18.60;98.00;;;;;;5054940;28;20537;-70
2022/06/13 00:28:51;;;;;;;1.90;1.67;;;18.60;98.00;;;;;;5054912;28;20450;-71
2022/06/13 00:31:19;;;;;;;1.70;1.37;;;18.70;98.00;;;;;;5054754;28;20453;-70
2022/06/13 00:33:47;;;;;;;1.60;1.50;;;18.60;98.00;;;;;;5054338;28;20457;-70
2022/06/13 00:36:15;;;;;;;1.87;1.53;;;18.70;98.00;;;;;;5054320;28;20458;-70
2022/06/13 00:38:42;;;;;;;1.43;1.40;;;18.80;98.00;;;;;;5054462;28;20454;-71
2022/06/13 00:41:11;;;;;;;1.60;1.30;;;18.80;98.00;;;;;;5054417;28;20454;-71
2022/06/13 00:43:40;;;;;;;1.73;1.60;;;18.70;98.00;;;;;;5054386;28;20457;-70
2022/06/13 00:46:19;;;;;;;3.10;1.73;;;18.70;98.00;;;;;;5052976;28;20454;-70
2022/06/13 00:48:48;;;;;;;2.10;1.70;;;18.80;98.00;;;;;;5054127;28;20456;-70
2022/06/13 00:51:15;;;;;;;1.70;1.40;;;18.70;98.00;;;;;;5052855;28;20459;-71
2022/06/13 00:53:43;;;;;;;1.90;1.50;;;18.70;98.00;;;;;;5054051;28;20457;-71
2022/06/13 00:56:13;;;;;;;3.20;2.10;;;18.50;98.00;;;;;;5053772;28;20484;-70
2022/06/13 00:58:43;;;;;;;2.07;1.57;;;18.50;98.00;;;;;;5052874;28;20472;-71
2022/06/13 01:01:11;;;;;;;1.93;1.63;;;18.60;98.00;;;;;;5053958;28;20857;-70
2022/06/13 01:03:38;;;;;;;2.00;1.60;;;18.70;98.00;;;;;;5052836;28;20507;-70
2022/06/13 01:06:10;;;;;;;1.40;1.40;;;18.60;98.00;;;;;;5053736;28;20445;-70
2022/06/13 01:08:39;;;;;;;2.27;1.60;;;18.60;98.00;;;;;;5054023;28;20465;-70
2022/06/13 01:11:17;;;;;;;1.40;1.40;;;18.40;98.00;;;;;;5053389;28;20477;-70
2022/06/13 01:14:26;;;;;;;2.27;1.77;;;18.20;98.00;;;;;;5054034;28;20461;-70
2022/06/13 01:17:07;;;;;;;2.53;1.93;;;18.30;98.00;;;;;;5053984;28;20469;-70
2022/06/13 01:20:03;;;;;;;3.50;1.80;;;18.10;98.00;;;;;;5054007;28;20465;-70
2022/06/13 01:23:10;;;;;;;1.83;1.47;;;18.10;98.00;;;;;;5046095;28;20793;-70
2022/06/13 01:26:17;;;;;;;3.10;2.00;;;18.10;98.00;;;;;;5052679;28;20477;-70
2022/06/13 01:29:32;;;;;;;1.70;1.50;;;18.10;98.00;;;;;;5053321;28;20454;-70
2022/06/13 01:32:10;;;;;;;1.93;1.37;;;18.10;98.00;;;;;;5053390;28;20453;-70
2022/06/13 01:34:45;;;;;;;1.87;1.50;;;18.00;98.00;;;;;;5053693;28;20468;-70
2022/06/13 01:37:24;;;;;;;1.67;1.60;;;18.00;98.00;;;;;;5053649;28;20469;-70
2022/06/13 01:40:04;;;;;;;1.90;1.40;;;18.00;98.00;;;;;;5053256;28;20468;-70
2022/06/13 01:42:47;;;;;;;1.60;1.30;;;18.00;98.00;;;;;;5053276;28;20504;-70
2022/06/13 01:45:22;;;;;;;1.70;1.50;;;18.10;98.00;;;;;;5053218;28;20815;-70
2022/06/13 01:47:57;;;;;;;1.60;1.47;;;18.40;98.00;;;;;;5053118;28;20456;-70
2022/06/13 01:50:31;;;;;;;2.00;1.40;;;18.30;98.00;;;;;;5052848;28;20491;-70
2022/06/13 01:53:06;;;;;;;1.50;1.30;;;18.40;98.00;;;;;;5052139;28;20467;-70
2022/06/13 01:55:42;;;;;;;1.40;1.30;;;18.20;98.00;;;;;;5052882;28;20462;-70
2022/06/13 01:58:16;;;;;;;1.70;1.50;;;18.10;98.00;;;;;;5052798;28;20461;-70
2022/06/13 02:00:48;;;;;;;1.83;1.50;;;18.10;98.00;;;;;;5052975;28;20446;-70
2022/06/13 02:03:26;;;;;;;1.20;1.20;;;17.90;98.00;;;;;;5051719;28;20454;-70
2022/06/13 02:05:57;;;;;;;1.67;1.40;;;17.80;98.00;;;;;;5052717;28;20561;-70
2022/06/13 02:08:29;;;;;;;2.00;1.33;;;17.80;98.00;;;;;;5052802;28;20511;-70
2022/06/13 02:11:01;;;;;;;1.83;1.60;;;17.50;98.00;;;;;;5052645;28;20493;-70
2022/06/13 02:13:34;;;;;;;2.00;1.60;;;17.50;98.00;;;;;;5052833;28;20465;-70
2022/06/13 02:16:09;;;;;;;7.73;1.53;;;17.70;98.00;;;;;;5052715;28;20480;-70
2022/06/13 02:18:45;;;;;;;1.80;1.60;;;17.70;98.00;;;;;;5052665;28;20461;-70
2022/06/13 02:21:14;;;;;;;1.77;1.63;;;17.60;98.00;;;;;;5052012;28;20457;-71
2022/06/13 02:23:47;;;;;;;1.67;1.50;;;17.80;98.00;;;;;;5051581;28;20465;-70
2022/06/13 02:26:20;;;;;;;2.03;1.40;;;17.70;98.00;;;;;;5051266;28;20523;-70
2022/06/13 02:28:53;;;;;;;1.70;1.60;;;17.50;98.00;;;;;;5052966;28;20458;-71
2022/06/13 02:31:25;;;;;;;1.60;1.47;;;17.50;98.00;;;;;;5052706;28;20525;-70
2022/06/13 02:33:59;;;;;;;3.60;2.00;;;17.70;98.00;;;;;;5052120;28;20515;-70
2022/06/13 02:36:32;;;;;;;1.93;1.50;;;17.90;98.00;;;;;;5052163;28;20457;-70
2022/06/13 02:39:04;;;;;;;1.63;1.40;;;18.20;98.00;;;;;;5052243;28;20503;-70
2022/06/13 02:41:38;;;;;;;2.07;1.63;;;18.20;98.00;;;;;;5051901;28;20450;-70
2022/06/13 02:44:11;;;;;;;1.70;1.63;;;18.00;98.00;;;;;;5052232;28;20454;-70
2022/06/13 02:46:47;;;;;;;3.00;1.67;;;17.90;98.00;;;;;;5052033;28;20464;-70
2022/06/13 02:49:21;;;;;;;2.27;1.50;;;17.90;98.00;;;;;;5051995;28;20555;-70
2022/06/13 02:51:57;;;;;;;1.70;1.47;;;17.90;98.00;;;;;;5051884;28;20456;-70
2022/06/13 02:54:29;;;;;;;1.50;1.40;;;18.00;98.00;;;;;;5051988;28;20461;-70
2022/06/13 02:57:25;;;;;;;2.43;1.80;;;17.90;98.00;;;;;;5051956;28;20466;-70
2022/06/13 03:00:12;;;;;;;2.03;1.40;;;17.90;98.00;;;;;;5050960;28;20548;-70
2022/06/13 03:02:47;;;;;;;1.57;1.50;;;17.80;98.00;;;;;;5051930;28;20457;-70
2022/06/13 03:05:43;;;;;;;2.03;1.50;;;17.60;98.00;;;;;;5051936;28;20452;-70
2022/06/13 03:08:20;;;;;;;6.80;2.67;;;17.50;98.00;;;;;;5046621;28;20473;-70
2022/06/13 03:10:57;;;;;;;3.00;1.90;;;17.50;98.00;;;;;;5051617;28;20543;-70
2022/06/13 03:13:31;;;;;;;2.17;1.90;;;17.50;98.00;;;;;;5051847;28;20465;-70
2022/06/13 03:16:03;;;;;;;1.90;1.60;;;17.30;98.00;;;;;;5051785;28;20457;-70
2022/06/13 03:18:38;;;;;;;1.80;1.67;;;17.30;98.00;;;;;;5034418;28;20462;-70
2022/06/13 03:21:13;;;;;;;1.70;1.43;;;17.30;98.00;;;;;;5052042;28;20507;-70
2022/06/13 03:23:45;;;;;;;1.63;1.50;;;17.60;98.00;;;;;;5051877;28;20457;-70
2022/06/13 03:26:17;;;;;;;2.33;1.53;;;17.50;98.00;;;;;;5052144;28;20457;-70
2022/06/13 03:28:48;;;;;;;3.33;1.77;;;17.60;98.00;;;;;;5051936;28;20465;-70
2022/06/13 03:31:19;;;;;;;2.50;1.63;;;17.50;98.00;;;;;;5051639;28;20490;-70
2022/06/13 03:33:53;;;;;;;1.37;1.30;;;17.40;98.00;;;;;;5054113;28;20454;-70
2022/06/13 03:36:27;;;;;;;1.80;1.67;;;17.40;98.00;;;;;;5055691;28;20466;-70
2022/06/13 03:39:18;;;;;;;1.70;1.60;;;17.50;98.00;;;;;;5055417;28;20468;-71
2022/06/13 03:41:48;;;;;;;3.10;1.83;;;17.60;98.00;;;;;;5054129;28;20450;-70
2022/06/13 03:44:21;;;;;;;2.03;1.50;;;17.60;98.00;;;;;;5055796;28;20453;-70
2022/06/13 03:46:54;;;;;;;1.87;1.57;;;17.60;98.00;;;;;;5055337;28;20462;-70
2022/06/13 03:49:29;;;;;;;2.80;2.00;;;17.70;98.00;;;;;;5054249;28;20456;-70
2022/06/13 03:52:01;;;;;;;2.30;2.00;;;17.70;98.00;;;;;;5055331;28;20496;-70
2022/06/13 03:54:38;;;;;;;2.30;1.50;;;17.70;98.00;;;;;;5055035;28;20472;-70
2022/06/13 03:57:13;;;;;;;2.13;1.57;;;17.80;98.00;;;;;;5055415;28;20461;-70
2022/06/13 03:59:45;;;;;;;2.43;1.60;;;17.70;98.00;;;;;;5055091;28;20468;-70
2022/06/13 04:02:16;;;;;;;2.10;1.60;;;17.50;98.00;;;;;;5053801;28;20450;-70
2022/06/13 04:04:47;;;;;;;1.80;1.63;;;17.50;98.00;;;;;;5054914;28;21002;-70
2022/06/13 04:07:16;;;;;;;2.00;1.70;;;17.50;98.00;;;;;;5053769;28;20465;-70
2022/06/13 04:09:48;;;;;;;2.43;1.57;;;17.50;98.00;;;;;;5054890;28;20453;-70
2022/06/13 04:12:34;;;;;;;3.80;2.00;;;17.50;98.00;;;;;;5053450;28;20464;-70
2022/06/13 04:15:35;;;;;;;1.83;1.67;;;17.60;98.00;;;;;;5055157;28;20446;-70
2022/06/13 04:18:11;;;;;;;2.27;1.40;;;17.50;98.00;;;;;;5054721;28;20457;-70
2022/06/13 04:20:46;;;;;;;1.97;1.60;;;17.60;98.00;;;;;;5054855;28;20461;-70
2022/06/13 04:23:22;;;;;;;1.80;1.70;;;17.80;98.00;;;;;;5053857;28;20453;-70
2022/06/13 04:25:54;;;;;;;2.63;1.60;;;17.80;98.00;;;;;;5055007;28;20453;-70
2022/06/13 04:28:26;;;;;;;2.67;2.47;;;17.80;98.00;;;;;;5055224;28;20477;-70
2022/06/13 04:30:55;;;;;;;1.63;1.30;;;17.80;98.00;;;;;;5054516;28;20512;-70
2022/06/13 04:33:28;;;;;;;2.50;1.70;;;17.70;98.00;;;;;;5053347;28;20462;-70
2022/06/13 04:35:56;;;;;;;2.30;1.60;;;17.70;98.00;;;;;;5054258;28;20462;-70
2022/06/13 04:38:26;;;;;;;1.93;1.60;;;17.70;98.00;;;;;;5054544;28;20470;-70
2022/06/13 04:40:57;;;;;;;2.43;1.80;;;17.80;98.00;;;;;;5054197;28;20457;-70
2022/06/13 04:43:33;;;;;;;1.40;1.40;;;18.00;98.00;;;;;;5054408;28;20906;-70
2022/06/13 04:46:04;;;;;;;2.53;1.60;;;17.90;98.00;;;;;;5053326;28;20450;-70
2022/06/13 04:48:33;;;;;;;2.13;1.60;;;17.90;98.00;;;;;;5054266;28;20469;-70
2022/06/13 04:51:03;;;;;;;2.20;1.57;;;17.90;98.00;;;;;;5054174;28;20478;-70
2022/06/13 04:53:38;;;;;;;1.70;1.50;;;18.00;98.00;;;;;;5054207;28;20464;-70
2022/06/13 04:56:05;;;;;;;3.53;2.00;;;18.00;98.00;;;;;;5054132;28;20465;-70
2022/06/13 04:58:35;;;;;;;2.70;2.33;;;18.00;98.00;;;;;;5054161;28;20453;-70
2022/06/13 05:01:06;;;;;;;2.13;1.80;;;17.90;98.00;;;;;;5053954;28;20462;-70
2022/06/13 05:03:38;;;;;;;5.00;1.80;;;17.90;98.00;;;;;;5054204;28;20466;-70
2022/06/13 05:06:17;;;;;;;2.13;1.70;;;17.80;98.00;;;;;;5053923;28;20473;-70
2022/06/13 05:08:53;;;;;;;1.80;1.50;;;17.70;98.00;;;;;;5054061;28;20468;-70
2022/06/13 05:11:25;;;;;;;1.80;1.50;;;17.60;98.00;;;;;;5053752;28;20488;-70
2022/06/13 05:13:57;;;;;;;4.77;1.90;;;17.40;98.00;;;;;;5053833;28;20843;-70
2022/06/13 05:16:39;;;;;;;2.30;1.40;;;17.50;98.00;;;;;;5053867;28;20468;-70
2022/06/13 05:19:21;;;;;;;1.77;1.50;;;17.40;98.00;;;;;;5053659;28;21014;-70
2022/06/13 05:21:56;;;;;;;1.63;1.30;;;17.40;98.00;;;;;;5053634;28;20454;-70
2022/06/13 05:24:45;;;;;;;7.50;2.10;;;17.40;98.00;;;;;;5053896;28;20453;-70
2022/06/13 05:27:12;;;;;;;1.40;1.40;;;17.30;98.00;;;;;;5053920;28;20462;-70
2022/06/13 05:29:40;;;;;;;2.30;1.60;;;17.40;98.00;;;;;;5053781;28;20815;-70
2022/06/13 05:32:12;;;;;;;1.50;1.33;;;17.40;98.00;;;;;;5053246;28;20482;-70
2022/06/13 05:34:43;;;;;;;3.40;1.90;;;17.50;98.00;;;;;;5053564;28;20824;-70
2022/06/13 05:37:13;;;;;;;2.00;1.90;;;17.50;98.00;;;;;;5052292;28;20583;-70
2022/06/13 05:39:43;;;;;;;2.23;1.70;;;17.60;98.00;;;;;;5053339;28;20469;-70
2022/06/13 05:42:12;;;;;;;1.80;1.73;;;17.80;98.00;;;;;;5053066;28;20461;-70
2022/06/13 05:44:39;;;;;;;1.80;1.50;;;17.80;98.00;;;;;;5053142;28;20449;-70
2022/06/13 05:47:09;;;;;;;6.00;1.50;;;17.80;98.00;;;;;;5052957;28;20546;-70
2022/06/13 05:49:36;;;;;;;2.00;1.60;;;17.80;98.00;;;;;;5051939;28;20458;-70
2022/06/13 05:52:04;;;;;;;2.27;1.93;;;17.90;98.00;;;;;;5052967;28;20540;-70
2022/06/13 05:54:31;;;;;;;2.13;1.80;;;18.00;98.00;;;;;;5053117;28;20473;-70
2022/06/13 05:57:00;;;;;;;1.70;1.47;;;18.00;98.00;;;;;;5052026;28;20778;-70
2022/06/13 05:59:27;;;;;;;4.00;1.90;;;18.00;98.00;;;;;;5052799;28;20996;-70
2022/06/13 06:01:55;;;;;;;2.60;1.77;;;18.00;98.00;;;;;;5052873;28;20456;-70
2022/06/13 06:04:22;;;;;;;1.50;1.30;;;18.00;98.00;;;;;;5053207;28;20453;-70
2022/06/13 06:06:49;;;;;;;2.27;1.67;;;18.10;98.00;;;;;;5052715;28;20468;-70
2022/06/13 06:09:17;;;;;;;2.57;2.03;;;18.10;98.00;;;;;;5053078;28;20497;-70
2022/06/13 06:11:45;;;;;;;1.77;1.70;;;18.20;98.00;;;;;;5052430;28;20486;-70
2022/06/13 06:14:14;;;;;;;1.93;1.37;;;18.30;98.00;;;;;;5052949;28;20457;-69
2022/06/13 06:16:41;;;;;;;1.60;1.50;;;18.30;98.00;;;;;;5052810;28;20459;-70
2022/06/13 06:19:09;;;;;;;2.20;1.53;;;18.30;98.00;;;;;;5052730;28;20538;-69
2022/06/13 06:21:36;;;;;;;2.43;1.87;;;18.30;98.00;;;;;;5052037;28;20454;-70
2022/06/13 06:24:03;;;;;;;5.83;2.33;;;18.20;98.00;;;;;;5052647;28;20458;-71
2022/06/13 06:26:32;;;;;;;1.93;1.53;;;18.20;98.00;;;;;;5052514;28;20457;-73
2022/06/13 06:28:59;;;;;;;2.97;2.13;;;18.10;98.00;;;;;;5052571;28;20964;-71
2022/06/13 06:31:28;;;;;;;2.73;1.80;;;18.20;98.00;;;;;;5052334;28;20485;-71
2022/06/13 06:33:55;;;;;;;3.50;1.80;;;18.30;98.00;;;;;;5052114;28;20964;-72
2022/06/13 06:36:25;;;;;;;2.23;1.53;;;18.40;98.00;;;;;;5051113;28;20450;-69
2022/06/13 06:38:52;;;;;;;1.60;1.50;;;18.40;98.00;;;;;;5052075;28;20465;-70
2022/06/13 06:41:19;;;;;;;1.57;1.33;;;18.40;98.00;;;;;;5052020;28;20792;-70
2022/06/13 06:43:46;;;;;;;2.10;1.80;;;18.50;98.00;;;;;;5052149;28;20469;-70
2022/06/13 06:46:14;;;;;;;7.33;2.30;;;18.50;98.00;;;;;;5051883;28;20454;-72
2022/06/13 06:48:44;;;;;;;1.50;1.50;;;18.30;98.00;;;;;;5052050;28;20457;-72
2022/06/13 06:51:14;;;;;;;2.50;2.00;;;18.40;98.00;;;;;;5051889;28;20493;-72
2022/06/13 07:01:56;;;;;;;1.70;1.70;;;18.80;98.00;;;;;;5051360;28;20584;-71
2022/06/13 07:04:31;;;;;;;2.60;1.57;;;18.90;98.00;;;;;;5051443;28;20461;-70
2022/06/13 07:06:59;;;;;;;2.17;1.73;;;18.70;98.00;;;;;;5049468;28;20464;-71
2022/06/13 07:09:26;;;;;;;2.13;1.60;;;18.70;98.00;;;;;;5050971;28;20461;-70
2022/06/13 07:11:55;;;;;;;2.17;1.50;;;18.70;98.00;;;;;;5050994;28;20952;-72
2022/06/13 07:14:24;;;;;;;2.90;2.00;;;18.80;98.00;;;;;;5051862;28;20457;-70
2022/06/13 07:16:54;;;;;;;1.70;1.60;;;18.90;98.00;;;;;;5051806;28;20469;-71
2022/06/13 07:19:22;;;;;;;2.90;1.70;;;18.90;98.00;;;;;;5051968;28;20459;-69
2022/06/13 07:21:51;;;;;;;1.50;1.40;;;19.00;98.00;;;;;;5051516;28;20461;-67
2022/06/13 07:24:20;;;;;;;1.90;1.83;;;19.10;98.00;;;;;;5051497;28;20449;-67
2022/06/13 07:26:48;;;;;;;2.27;1.80;;;19.50;98.00;;;;;;5051844;28;20454;-66
2022/06/13 07:29:16;;;;;;;2.20;1.90;;;19.80;98.00;;;;;;5051514;28;20480;-67
2022/06/13 07:31:47;;;;;;;3.17;1.57;;;20.10;98.00;;;;;;5050023;28;20484;-66
2022/06/13 07:34:17;;;;;;;2.00;1.60;;;20.30;98.00;;;;;;5051856;28;20532;-66
2022/06/13 07:36:44;;;;;;;3.53;1.80;;;20.60;98.00;;;;;;5051774;28;20457;-66
2022/06/13 07:39:13;;;;;;;3.93;2.47;;;20.40;98.00;;;;;;5051340;28;20472;-66
2022/06/13 07:41:41;;;;;;;3.67;2.10;;;20.40;98.00;;;;;;5042824;28;20485;-66
2022/06/13 07:44:11;;;;;;;2.10;1.90;;;20.40;98.00;;;;;;5029230;28;20455;-66
2022/06/13 07:46:38;;;;;;;2.60;1.97;;;20.50;98.00;;;;;;5027862;28;20469;-68
2022/06/13 07:49:06;;;;;;;2.60;1.90;;;20.60;98.00;;;;;;5030671;28;20462;-68
2022/06/13 07:51:33;;;;;;;3.13;2.10;;;20.40;98.00;;;;;;5036071;28;20506;-68
2022/06/13 07:54:00;;;;;;;2.67;2.10;;;20.40;98.00;;;;;;5028642;28;20470;-69
2022/06/13 07:56:31;;;;;;;2.90;1.73;;;20.40;98.00;;;;;;5050178;28;20469;-69
2022/06/13 07:59:00;;;;;;;2.93;1.80;;;20.40;98.00;;;;;;5051367;28;20474;-68
2022/06/13 08:01:28;;;;;;;3.43;2.10;;;20.40;98.00;;;;;;5033662;28;20461;-67
2022/06/13 08:03:56;;;;;;;3.20;2.10;;;20.40;98.00;;;;;;5051098;28;20461;-69
2022/06/13 08:06:26;;;;;;;3.17;2.20;;;20.30;98.00;;;;;;5051129;28;20852;-69
2022/06/13 08:08:53;;;;;;;3.20;2.20;;;20.40;98.00;;;;;;5051329;28;20454;-69
2022/06/13 08:11:28;;;;;;;3.83;2.07;;;20.60;98.00;;;;;;5051253;28;20488;-67
2022/06/13 08:13:56;;;;;;;1.60;1.60;;;20.50;98.00;;;;;;5044012;28;20465;-69
2022/06/13 08:16:24;;;;;;;2.50;1.90;;;20.50;98.00;;;;;;5031242;28;20462;-69
2022/06/13 08:18:51;;;;;;;3.23;1.80;;;20.50;98.00;;;;;;5031434;28;20466;-68
2022/06/13 08:21:18;;;;;;;2.30;1.77;;;20.60;98.00;;;;;;5034390;28;20467;-69
2022/06/13 08:23:46;;;;;;;2.47;1.87;;;20.80;98.00;;;;;;5035079;28;20465;-69
2022/06/13 08:26:13;;;;;;;3.53;1.90;;;20.90;98.00;;;;;;5034921;28;20454;-69
2022/06/13 08:28:40;;;;;;;2.80;2.00;;;20.90;98.00;;;;;;5035008;28;20469;-69
2022/06/13 08:31:11;;;;;;;2.17;1.87;;;21.00;98.00;;;;;;5033251;28;20455;-69
2022/06/13 08:33:40;;;;;;;1.80;1.80;;;21.00;98.00;;;;;;5034885;28;20458;-69
2022/06/13 08:36:07;;;;;;;3.30;2.00;;;21.00;98.00;;;;;;5034317;28;20463;-68
2022/06/13 08:38:35;;;;;;;1.97;1.70;;;21.00;98.00;;;;;;5033503;28;20521;-69
2022/06/13 08:41:09;;;;;;;2.23;1.77;;;21.00;98.00;;;;;;5034392;28;20450;-69
2022/06/13 08:44:06;;;;;;;2.57;2.00;;;21.00;98.00;;;;;;5034749;28;20454;-69
2022/06/13 08:46:44;;;;;;;2.53;2.17;;;21.00;98.00;;;;;;5003864;28;20481;-69
2022/06/13 08:49:18;;;;;;;5.37;1.97;;;21.00;97.00;;;;;;5034228;28;20458;-69
2022/06/13 08:51:47;;;;;;;2.23;1.83;;;21.00;97.20;;;;;;5033035;28;20482;-69
2022/06/13 08:54:20;;;;;;;2.27;1.90;;;21.10;98.00;;;;;;5034055;28;20467;-70
2022/06/13 08:56:49;;;;;;;2.33;1.83;;;21.30;98.00;;;;;;5034428;28;20808;-69
2022/06/13 08:59:25;;;;;;;2.87;1.80;;;21.50;97.90;;;;;;5034172;28;20462;-69
2022/06/13 09:02:00;;;;;;;3.47;2.20;;;21.60;97.90;;;;;;5033924;28;20964;-69
2022/06/13 09:04:32;;;;;;;1.97;1.43;;;21.70;98.00;;;;;;5033857;28;20459;-69
2022/06/13 09:07:07;;;;;;;1.63;1.63;;;21.80;98.00;;;;;;5033875;28;20466;-69
2022/06/13 09:09:39;;;;;;;2.10;1.77;;;21.90;96.50;;;;;;5034038;28;20462;-70
2022/06/13 09:12:09;;;;;;;2.17;1.70;;;21.90;96.40;;;;;;5033705;28;20505;-69
2022/06/13 09:14:41;;;;;;;2.80;2.00;;;21.80;95.70;;;;;;5033505;28;20506;-70
2022/06/13 09:17:17;;;;;;;2.50;1.97;;;21.40;95.40;;;;;;5033969;28;20468;-70
2022/06/13 09:19:54;;;;;;;2.00;1.77;;;21.40;98.00;;;;;;5033896;28;21118;-69
2022/06/13 09:22:26;;;;;;;2.70;2.00;;;21.30;96.80;;;;;;5033760;28;20454;-69
2022/06/13 09:25:01;;;;;;;3.13;2.10;;;21.20;97.20;;;;;;5032766;28;20458;-69
2022/06/13 09:27:34;;;;;;;3.30;2.10;;;21.30;97.00;;;;;;5033971;28;20541;-70
2022/06/13 09:30:07;;;;;;;2.20;2.00;;;21.30;97.00;;;;;;5033058;28;20455;-69
2022/06/13 09:32:42;;;;;;;3.13;2.57;;;21.30;98.00;;;;;;5034181;28;20544;-69
2022/06/13 09:35:17;;;;;;;2.70;1.90;;;21.20;98.00;;;;;;5034282;28;20478;-70
2022/06/13 09:37:52;;;;;;;4.33;2.00;;;21.20;97.30;;;;;;5032625;28;20553;-69
2022/06/13 09:40:22;;;;;;;3.60;2.03;;;21.60;98.00;;;;;;5033880;28;20465;-68
2022/06/13 09:43:10;;;;;;;2.80;1.70;;;21.60;94.50;;;;;;5033232;28;20493;-69
2022/06/13 09:45:49;;;;;;;2.30;1.97;;;21.80;97.10;;;;;;5032871;28;20541;-70
2022/06/13 09:48:33;;;;;;;2.70;2.03;;;21.80;95.90;;;;;;5032156;28;20459;-69
2022/06/13 09:51:22;;;;;;;3.53;2.30;;;21.80;92.80;;;;;;5033133;28;20461;-69
2022/06/13 09:53:56;;;;;;;1.70;1.67;;;22.00;92.20;;;;;;5033213;28;20487;-69
2022/06/13 09:56:31;;;;;;;2.40;1.77;;;22.20;89.70;;;;;;5032639;28;20972;-70
2022/06/13 09:59:11;;;;;;;9.80;2.30;;;22.40;89.70;;;;;;5032960;28;20470;-70
2022/06/13 10:01:44;;;;;;;4.10;1.90;;;22.40;88.00;;;;;;5033075;28;20484;-70
2022/06/13 10:04:18;;;;;;;2.73;2.10;;;22.50;89.50;;;;;;5031737;28;20462;-70
2022/06/13 10:06:48;;;;;;;2.47;1.83;;;22.60;89.90;;;;;;5032886;28;20546;-69
2022/06/13 10:09:31;;;;;;;2.83;2.07;;;22.70;89.20;;;;;;5032689;28;21100;-70
2022/06/13 10:12:08;;;;;;;3.50;2.10;;;22.80;89.40;;;;;;5032440;28;20490;-70
2022/06/13 10:14:47;;;;;;;3.57;2.20;;;22.90;90.80;;;;;;5043373;28;20462;-69
2022/06/13 10:17:33;;;;;;;3.67;2.10;;;23.00;88.30;;;;;;5052719;28;20458;-69
2022/06/13 10:20:07;;;;;;;3.07;2.20;;;23.10;89.60;;;;;;5041471;28;20476;-69
2022/06/13 10:22:50;;;;;;;2.77;2.10;;;23.20;89.60;;;;;;5032703;28;20470;-70
2022/06/13 10:25:29;;;;;;;3.27;2.30;;;23.30;84.50;;;;;;5039909;28;20549;-70
2022/06/13 10:28:08;;;;;;;4.77;2.37;;;23.10;87.00;;;;;;5049480;28;20991;-71
2022/06/13 10:30:51;;;;;;;2.30;2.13;;;23.10;92.50;;;;;;5045442;28;20499;-70
2022/06/13 10:33:31;;;;;;;4.20;2.63;;;23.40;88.60;;;;;;5030839;28;20501;-69
2022/06/13 10:36:11;;;;;;;3.57;1.83;;;23.60;88.50;;;;;;5034656;28;20464;-70
2022/06/13 10:38:53;;;;;;;2.53;1.80;;;23.50;84.10;;;;;;5041836;28;20471;-69
2022/06/13 10:41:22;;;;;;;3.00;2.10;;;23.20;83.20;;;;;;5037970;28;20473;-70
2022/06/13 10:43:50;;;;;;;2.07;1.73;;;22.90;85.10;;;;;;5038785;28;20458;-70
2022/06/13 10:46:17;;;;;;;2.20;1.70;;;22.80;86.70;;;;;;5046298;28;20462;-70
2022/06/13 10:48:49;;;;;;;2.60;1.90;;;23.10;85.20;;;;;;5040793;28;20454;-69
2022/06/13 10:51:18;;;;;;;3.00;1.83;;;23.00;83.30;;;;;;5029007;28;20521;-70
2022/06/13 10:53:53;;;;;;;4.23;2.40;;;23.20;85.00;;;;;;5042715;28;20495;-70
2022/06/13 10:56:23;;;;;;;1.83;1.80;;;23.40;84.60;;;;;;5040288;28;20458;-70
2022/06/13 10:58:53;;;;;;;3.43;1.90;;;23.50;86.60;;;;;;5040043;28;20454;-72
2022/06/13 11:01:21;;;;;;;2.27;2.00;;;23.90;85.40;;;;;;5020975;28;20466;-70
2022/06/13 11:04:03;;;;;;;2.13;1.70;;;24.00;82.90;;;;;;5047978;28;20457;-69
2022/06/13 11:06:40;;;;;;;3.33;2.10;;;24.00;82.60;;;;;;5047640;28;20461;-69
2022/06/13 11:09:23;;;;;;;3.00;2.00;;;24.10;80.60;;;;;;5038612;28;20472;-70
2022/06/13 11:11:55;;;;;;;2.03;1.90;;;24.30;82.60;;;;;;5033827;28;20463;-69
2022/06/13 11:14:33;;;;;;;2.07;1.80;;;24.50;81.80;;;;;;5034917;28;20466;-70
2022/06/13 11:22:40;;;;;;;3.60;1.83;;;24.30;81.80;;;;;;5046087;28;20955;-70
2022/06/13 11:25:21;;;;;;;2.67;2.20;;;24.50;81.60;;;;;;5038138;28;20469;-70
2022/06/13 11:28:01;;;;;;;2.13;2.00;;;24.40;79.60;;;;;;5039943;28;20473;-69
2022/06/13 11:30:46;;;;;;;4.10;1.90;;;24.50;78.80;;;;;;5045477;28;20553;-69
2022/06/13 11:33:24;;;;;;;5.70;2.00;;;24.90;79.90;;;;;;5030074;28;21018;-70
2022/06/13 11:35:58;;;;;;;3.10;1.80;;;25.00;78.30;;;;;;5047213;28;20457;-69
2022/06/13 11:38:30;;;;;;;2.50;1.93;;;25.10;77.70;;;;;;5031158;28;20524;-70
2022/06/13 11:41:15;;;;;;;2.03;1.57;;;24.90;76.90;;;;;;5030817;28;20465;-70
2022/06/13 11:43:49;;;;;;;2.83;2.07;;;24.90;76.30;;;;;;5047917;28;20527;-65
2022/06/13 11:46:33;;;;;;;2.17;1.70;;;25.00;73.70;;;;;;5043355;28;20469;-70
2022/06/13 11:49:07;;;;;;;2.67;1.90;;;24.70;75.80;;;;;;5036944;28;20463;-71
2022/06/13 11:51:42;;;;;;;2.00;1.87;;;24.70;78.80;;;;;;5035703;28;20457;-72
2022/06/13 11:54:22;;;;;;;2.60;1.83;;;25.10;76.60;;;;;;5031049;28;20497;-70
2022/06/13 11:56:50;;;;;;;2.20;1.80;;;25.20;74.90;;;;;;5042849;28;20461;-72
2022/06/13 11:59:22;;;;;;;2.47;1.80;;;25.50;78.00;;;;;;5042870;28;20867;-71
2022/06/13 12:01:57;;;;;;;3.93;1.67;;;25.40;74.20;;;;;;5033414;28;20458;-73
2022/06/13 12:04:24;;;;;;;2.47;1.80;;;25.60;77.80;;;;;;5035854;28;20457;-71
2022/06/13 12:06:58;;;;;;;1.80;1.60;;;26.00;72.60;;;;;;5049881;28;20794;-73
2022/06/13 12:09:31;;;;;;;4.27;1.97;;;26.50;77.10;;;;;;5034752;28;20462;-70
2022/06/13 12:12:01;;;;;;;2.60;2.13;;;26.90;74.40;;;;;;5051664;28;20536;-72
2022/06/13 12:14:30;;;;;;;2.73;1.90;;;27.00;76.10;;;;;;5045884;28;20588;-72
2022/06/13 12:17:02;;;;;;;2.17;1.80;;;26.80;74.10;;;;;;5044320;28;20714;-70
2022/06/13 12:19:35;;;;;;;2.43;1.70;;;26.70;75.20;;;;;;5039276;28;20477;-70
2022/06/13 12:22:16;;;;;;;6.00;1.97;;;26.60;73.40;;;;;;5036448;28;20454;-72
2022/06/13 12:24:56;;;;;;;2.90;1.77;;;26.00;72.90;;;;;;5043133;28;20489;-71
2022/06/13 12:27:42;;;;;;;1.90;1.73;;;25.40;74.90;;;;;;5035891;28;20458;-72
2022/06/13 12:30:38;;;;;;;3.03;2.30;;;25.00;76.20;;;;;;5033005;28;20458;-72
2022/06/13 12:33:17;;;;;;;2.00;1.87;;;24.70;76.80;;;;;;5034074;28;20490;-72
2022/06/13 12:36:02;;;;;;;3.20;1.90;;;25.00;77.80;;;;;;5034214;28;20489;-71
2022/06/13 12:38:46;;;;;;;2.10;1.67;;;25.30;77.40;;;;;;5041590;28;20492;-72
2022/06/13 12:41:28;;;;;;;2.37;2.10;;;26.00;76.00;;;;;;5051714;28;20462;-70
2022/06/13 12:44:13;;;;;;;10.43;3.57;;;26.60;74.50;;;;;;5041920;28;20944;-72
2022/06/13 12:46:56;;;;;;;3.30;1.80;;;27.30;73.20;;;;;;5051115;28;20465;-71
2022/06/13 12:49:56;;;;;;;4.17;2.50;;;27.30;70.60;;;;;;5054509;28;20465;-70
2022/06/13 12:52:40;;;;;;;3.20;1.80;;;27.40;72.60;;;;;;5054202;28;20458;-69
2022/06/13 12:55:25;;;;;;;1.90;1.80;;;27.10;74.70;;;;;;5053927;28;20900;-72
2022/06/13 12:58:17;;;;;;;5.10;2.00;;;27.40;73.10;;;;;;5054037;28;20466;-70
2022/06/13 13:00:49;;;;;;;5.87;1.90;;;27.00;70.70;;;;;;5049495;28;20458;-69
2022/06/13 13:03:43;;;;;;;2.57;1.70;;;26.50;70.80;;;;;;5034142;28;20463;-72
2022/06/13 13:06:21;;;;;;;4.70;1.70;;;26.10;72.60;;;;;;5032122;28;20455;-70
2022/06/13 13:09:02;;;;;;;1.83;1.70;;;25.80;75.30;;;;;;5033997;28;20952;-69
2022/06/13 13:11:57;;;;;;;1.70;1.50;;;25.80;73.70;;;;;;5034135;28;20966;-70
2022/06/13 13:14:39;;;;;;;1.90;1.73;;;25.60;72.90;;;;;;5031873;28;20494;-70
2022/06/13 13:17:19;;;;;;;3.43;2.00;;;25.80;74.30;;;;;;5033647;28;20470;-70
2022/06/13 13:19:55;;;;;;;2.13;1.70;;;26.50;75.50;;;;;;5033822;28;20459;-70
2022/06/13 13:22:27;;;;;;;2.10;1.70;;;27.10;73.70;;;;;;5033995;28;20541;-70
2022/06/13 13:25:08;;;;;;;1.90;1.63;;;27.60;70.30;;;;;;5033794;28;20455;-70
2022/06/13 13:27:47;;;;;;;2.23;1.80;;;27.90;73.10;;;;;;5034166;28;20469;-69
2022/06/13 13:30:20;;;;;;;1.63;1.60;;;28.10;70.50;;;;;;5032676;28;20457;-70
2022/06/13 13:33:22;;;;;;;1.77;1.70;;;28.40;69.60;;;;;;5033853;28;21206;-70
2022/06/13 13:35:54;;;;;;;2.07;1.70;;;27.80;69.40;;;;;;5033659;28;20462;-71
2022/06/13 13:38:33;;;;;;;3.00;2.00;;;28.00;73.30;;;;;;5033675;28;20458;-71